Terminal Aerodrome Forecast
Issued by NWS Twin Cities, MN

Home | Current Version | Previous Version | Text Only | Print | Product List | Glossary Off
Versions: 1 2 3 4 5 6 7 8 9 10 11 12 13 14 15 16 17 18 19

000
FTUS43 KMPX 171100
TAFSTC
TAF
KSTC 171137Z 1712/1812 35010KT P6SM BKN020
     FM171500 33009KT P6SM BKN025
     FM171800 33005KT P6SM SCT040
     FM180000 00000KT P6SM FEW040 SCT250
     FM180900 12003KT P6SM SCT070=

USA.gov is the U.S. government's official web portal to all federal, state and local government web resources and services.